sensor_id;sensor_type;location;lat;lon;timestamp;pressure;altitude;pressure_sealevel;temperature;humidity
56006;BME280;41888;44.696;10.522;2023-04-25T00:00:29;99651.66;;;11.42;100.00
56006;BME280;41888;44.696;10.522;2023-04-25T00:02:55;99660.97;;;11.52;100.00
56006;BME280;41888;44.696;10.522;2023-04-25T00:05:23;99671.03;;;11.50;100.00
56006;BME280;41888;44.696;10.522;2023-04-25T00:07:49;99667.44;;;11.56;100.00
56006;BME280;41888;44.696;10.522;2023-04-25T00:10:16;99656.56;;;11.57;100.00
56006;BME280;41888;44.696;10.522;2023-04-25T00:12:42;99659.44;;;11.44;100.00
56006;BME280;41888;44.696;10.522;2023-04-25T00:15:09;99666.16;;;11.47;100.00
56006;BME280;41888;44.696;10.522;2023-04-25T00:17:35;99666.81;;;11.42;100.00
56006;BME280;41888;44.696;10.522;2023-04-25T00:20:02;99659.09;;;11.40;100.00
56006;BME280;41888;44.696;10.522;2023-04-25T00:22:31;99657.56;;;11.33;100.00
56006;BME280;41888;44.696;10.522;2023-04-25T00:24:57;99657.69;;;10.96;100.00
56006;BME280;41888;44.696;10.522;2023-04-25T00:27:26;99661.06;;;11.04;100.00
56006;BME280;41888;44.696;10.522;2023-04-25T00:29:52;99663.25;;;11.07;100.00
56006;BME280;41888;44.696;10.522;2023-04-25T00:32:18;99666.75;;;11.07;100.00
56006;BME280;41888;44.696;10.522;2023-04-25T00:34:44;99653.16;;;10.97;100.00
56006;BME280;41888;44.696;10.522;2023-04-25T00:37:11;99654.53;;;10.70;100.00
56006;BME280;41888;44.696;10.522;2023-04-25T00:39:37;99666.00;;;10.70;100.00
56006;BME280;41888;44.696;10.522;2023-04-25T00:42:03;99671.47;;;10.75;100.00
56006;BME280;41888;44.696;10.522;2023-04-25T00:44:31;99667.69;;;10.83;100.00
56006;BME280;41888;44.696;10.522;2023-04-25T00:46:58;99669.34;;;10.66;100.00
56006;BME280;41888;44.696;10.522;2023-04-25T00:49:25;99655.47;;;10.27;100.00
56006;BME280;41888;44.696;10.522;2023-04-25T00:51:51;99662.41;;;10.28;100.00
56006;BME280;41888;44.696;10.522;2023-04-25T00:54:17;99665.22;;;10.51;100.00
56006;BME280;41888;44.696;10.522;2023-04-25T00:56:44;99663.22;;;10.47;100.00
56006;BME280;41888;44.696;10.522;2023-04-25T00:59:11;99665.53;;;10.25;100.00
56006;BME280;41888;44.696;10.522;2023-04-25T01:01:39;99651.91;;;10.15;100.00
56006;BME280;41888;44.696;10.522;2023-04-25T01:04:05;99661.69;;;10.39;100.00
56006;BME280;41888;44.696;10.522;2023-04-25T01:06:32;99656.16;;;10.41;100.00
56006;BME280;41888;44.696;10.522;2023-04-25T01:08:59;99652.81;;;10.27;100.00
56006;BME280;41888;44.696;10.522;2023-04-25T01:11:25;99646.41;;;9.92;100.00
56006;BME280;41888;44.696;10.522;2023-04-25T01:13:52;99655.84;;;9.88;100.00
56006;BME280;41888;44.696;10.522;2023-04-25T01:16:18;99649.25;;;10.15;100.00
56006;BME280;41888;44.696;10.522;2023-04-25T01:18:45;99643.91;;;9.97;100.00
56006;BME280;41888;44.696;10.522;2023-04-25T01:21:12;99644.78;;;9.91;100.00
56006;BME280;41888;44.696;10.522;2023-04-25T01:23:40;99647.56;;;9.78;100.00
56006;BME280;41888;44.696;10.522;2023-04-25T01:26:08;99641.50;;;9.70;100.00
56006;BME280;41888;44.696;10.522;2023-04-25T01:28:34;99651.44;;;9.57;100.00
56006;BME280;41888;44.696;10.522;2023-04-25T01:31:01;99654.44;;;9.60;100.00
56006;BME280;41888;44.696;10.522;2023-04-25T01:33:29;99646.47;;;9.60;100.00
56006;BME280;41888;44.696;10.522;2023-04-25T01:35:56;99647.78;;;9.51;100.00
56006;BME280;41888;44.696;10.522;2023-04-25T01:38:22;99645.84;;;9.40;100.00
56006;BME280;41888;44.696;10.522;2023-04-25T01:40:50;99643.50;;;9.50;100.00
56006;BME280;41888;44.696;10.522;2023-04-25T01:43:17;99652.66;;;9.54;100.00
56006;BME280;41888;44.696;10.522;2023-04-25T01:45:43;99649.13;;;9.60;100.00
56006;BME280;41888;44.696;10.522;2023-04-25T01:48:11;99647.56;;;9.53;100.00
56006;BME280;41888;44.696;10.522;2023-04-25T01:50:38;99644.53;;;9.49;100.00
56006;BME280;41888;44.696;10.522;2023-04-25T01:53:05;99655.47;;;9.59;100.00
56006;BME280;41888;44.696;10.522;2023-04-25T01:55:31;99657.69;;;9.38;100.00
56006;BME280;41888;44.696;10.522;2023-04-25T01:57:58;99666.16;;;8.90;100.00
56006;BME280;41888;44.696;10.522;2023-04-25T02:00:25;99665.19;;;8.78;100.00
56006;BME280;41888;44.696;10.522;2023-04-25T02:02:51;99666.19;;;8.83;100.00
56006;BME280;41888;44.696;10.522;2023-04-25T02:05:19;99667.28;;;8.69;100.00
56006;BME280;41888;44.696;10.522;2023-04-25T02:07:48;99662.13;;;8.81;100.00
56006;BME280;41888;44.696;10.522;2023-04-25T02:10:14;99668.78;;;8.97;100.00
56006;BME280;41888;44.696;10.522;2023-04-25T02:12:41;99660.47;;;8.86;100.00
56006;BME280;41888;44.696;10.522;2023-04-25T02:15:07;99656.78;;;8.87;100.00
56006;BME280;41888;44.696;10.522;2023-04-25T02:17:33;99658.84;;;8.85;100.00
56006;BME280;41888;44.696;10.522;2023-04-25T02:19:59;99647.63;;;9.15;100.00
56006;BME280;41888;44.696;10.522;2023-04-25T02:22:25;99652.91;;;9.21;100.00
56006;BME280;41888;44.696;10.522;2023-04-25T02:24:53;99641.06;;;9.24;100.00
56006;BME280;41888;44.696;10.522;2023-04-25T02:27:19;99646.31;;;9.30;100.00
56006;BME280;41888;44.696;10.522;2023-04-25T02:29:46;99646.03;;;9.39;100.00
56006;BME280;41888;44.696;10.522;2023-04-25T02:32:12;99653.63;;;9.35;100.00
56006;BME280;41888;44.696;10.522;2023-04-25T02:34:38;99650.69;;;9.43;100.00
56006;BME280;41888;44.696;10.522;2023-04-25T02:37:04;99654.00;;;9.39;100.00
56006;BME280;41888;44.696;10.522;2023-04-25T02:39:30;99656.16;;;9.23;100.00
56006;BME280;41888;44.696;10.522;2023-04-25T02:41:56;99655.38;;;9.16;100.00
56006;BME280;41888;44.696;10.522;2023-04-25T02:44:22;99637.41;;;9.18;100.00
56006;BME280;41888;44.696;10.522;2023-04-25T02:46:49;99647.81;;;9.20;100.00
56006;BME280;41888;44.696;10.522;2023-04-25T02:49:15;99639.41;;;9.23;100.00
56006;BME280;41888;44.696;10.522;2023-04-25T02:51:41;99638.41;;;9.24;100.00
56006;BME280;41888;44.696;10.522;2023-04-25T02:54:07;99637.91;;;9.09;100.00
56006;BME280;41888;44.696;10.522;2023-04-25T02:56:33;99623.94;;;9.20;100.00
56006;BME280;41888;44.696;10.522;2023-04-25T02:58:59;99616.44;;;9.10;100.00
56006;BME280;41888;44.696;10.522;2023-04-25T03:01:26;99620.97;;;9.03;100.00
56006;BME280;41888;44.696;10.522;2023-04-25T03:03:52;99616.78;;;8.89;100.00
56006;BME280;41888;44.696;10.522;2023-04-25T03:06:18;99618.13;;;8.67;100.00
56006;BME280;41888;44.696;10.522;2023-04-25T03:08:44;99607.91;;;8.70;100.00
56006;BME280;41888;44.696;10.522;2023-04-25T03:11:10;99604.56;;;8.50;100.00
56006;BME280;41888;44.696;10.522;2023-04-25T03:13:36;99589.19;;;8.65;100.00
56006;BME280;41888;44.696;10.522;2023-04-25T03:16:03;99595.28;;;8.66;100.00
56006;BME280;41888;44.696;10.522;2023-04-25T03:18:29;99601.06;;;8.56;100.00
56006;BME280;41888;44.696;10.522;2023-04-25T03:20:55;99598.53;;;8.30;100.00
56006;BME280;41888;44.696;10.522;2023-04-25T03:23:21;99601.16;;;8.23;100.00
56006;BME280;41888;44.696;10.522;2023-04-25T03:25:47;99588.91;;;8.29;100.00
56006;BME280;41888;44.696;10.522;2023-04-25T03:28:14;99600.34;;;8.23;100.00
56006;BME280;41888;44.696;10.522;2023-04-25T03:30:40;99600.81;;;8.06;100.00
56006;BME280;41888;44.696;10.522;2023-04-25T03:33:06;99602.81;;;8.18;100.00
56006;BME280;41888;44.696;10.522;2023-04-25T03:35:32;99601.19;;;8.30;100.00
56006;BME280;41888;44.696;10.522;2023-04-25T03:37:58;99601.34;;;8.28;100.00
56006;BME280;41888;44.696;10.522;2023-04-25T03:40:25;99607.69;;;8.34;100.00
56006;BME280;41888;44.696;10.522;2023-04-25T03:42:51;99604.25;;;8.14;100.00
56006;BME280;41888;44.696;10.522;2023-04-25T03:45:17;99609.31;;;8.15;100.00
56006;BME280;41888;44.696;10.522;2023-04-25T03:47:43;99607.69;;;8.21;100.00
56006;BME280;41888;44.696;10.522;2023-04-25T03:50:10;99613.03;;;8.14;100.00
56006;BME280;41888;44.696;10.522;2023-04-25T03:52:36;99601.25;;;7.84;100.00
56006;BME280;41888;44.696;10.522;2023-04-25T03:55:02;99607.81;;;7.81;100.00
56006;BME280;41888;44.696;10.522;2023-04-25T03:57:28;99595.56;;;7.80;100.00
56006;BME280;41888;44.696;10.522;2023-04-25T03:59:54;99596.00;;;7.71;100.00
56006;BME280;41888;44.696;10.522;2023-04-25T04:02:21;99597.22;;;7.81;100.00
56006;BME280;41888;44.696;10.522;2023-04-25T04:04:47;99603.72;;;7.85;100.00
56006;BME280;41888;44.696;10.522;2023-04-25T04:07:13;99611.47;;;7.80;100.00
56006;BME280;41888;44.696;10.522;2023-04-25T04:09:39;99613.88;;;7.88;100.00
56006;BME280;41888;44.696;10.522;2023-04-25T04:12:05;99613.88;;;8.01;100.00
56006;BME280;41888;44.696;10.522;2023-04-25T04:14:32;99613.63;;;8.16;100.00
56006;BME280;41888;44.696;10.522;2023-04-25T04:16:58;99610.94;;;8.23;100.00
56006;BME280;41888;44.696;10.522;2023-04-25T04:19:24;99614.63;;;8.35;100.00
56006;BME280;41888;44.696;10.522;2023-04-25T04:21:50;99616.78;;;8.51;100.00
56006;BME280;41888;44.696;10.522;2023-04-25T04:24:16;99617.38;;;8.53;100.00
56006;BME280;41888;44.696;10.522;2023-04-25T04:26:43;99621.03;;;8.59;100.00
56006;BME280;41888;44.696;10.522;2023-04-25T04:29:11;99618.34;;;8.65;100.00
56006;BME280;41888;44.696;10.522;2023-04-25T04:31:37;99612.03;;;8.66;100.00
56006;BME280;41888;44.696;10.522;2023-04-25T04:34:03;99626.44;;;8.77;100.00
56006;BME280;41888;44.696;10.522;2023-04-25T04:36:30;99629.13;;;8.70;100.00
56006;BME280;41888;44.696;10.522;2023-04-25T04:38:56;99626.47;;;8.70;100.00
56006;BME280;41888;44.696;10.522;2023-04-25T04:41:23;99628.47;;;8.81;100.00
56006;BME280;41888;44.696;10.522;2023-04-25T04:43:49;99631.81;;;8.57;100.00
56006;BME280;41888;44.696;10.522;2023-04-25T04:46:15;99630.63;;;8.98;100.00
56006;BME280;41888;44.696;10.522;2023-04-25T04:48:42;99635.09;;;8.97;100.00
56006;BME280;41888;44.696;10.522;2023-04-25T04:51:08;99643.25;;;8.96;100.00
56006;BME280;41888;44.696;10.522;2023-04-25T04:53:34;99647.34;;;8.98;100.00
56006;BME280;41888;44.696;10.522;2023-04-25T04:56:00;99657.97;;;8.98;100.00
56006;BME280;41888;44.696;10.522;2023-04-25T04:58:26;99659.00;;;8.90;100.00
56006;BME280;41888;44.696;10.522;2023-04-25T05:00:55;99664.94;;;8.93;100.00
56006;BME280;41888;44.696;10.522;2023-04-25T05:03:21;99661.03;;;8.88;100.00
56006;BME280;41888;44.696;10.522;2023-04-25T05:05:47;99660.63;;;8.98;100.00
56006;BME280;41888;44.696;10.522;2023-04-25T05:08:14;99659.13;;;9.09;100.00
56006;BME280;41888;44.696;10.522;2023-04-25T05:10:40;99662.00;;;9.01;100.00
56006;BME280;41888;44.696;10.522;2023-04-25T05:13:07;99671.63;;;8.95;100.00
56006;BME280;41888;44.696;10.522;2023-04-25T05:15:33;99665.69;;;9.00;100.00
56006;BME280;41888;44.696;10.522;2023-04-25T05:17:59;99663.59;;;9.08;100.00
56006;BME280;41888;44.696;10.522;2023-04-25T05:20:26;99671.28;;;9.23;100.00
56006;BME280;41888;44.696;10.522;2023-04-25T05:22:52;99670.25;;;9.49;100.00
56006;BME280;41888;44.696;10.522;2023-04-25T05:25:18;99676.00;;;10.20;100.00
56006;BME280;41888;44.696;10.522;2023-04-25T05:27:44;99685.44;;;10.52;100.00
56006;BME280;41888;44.696;10.522;2023-04-25T05:30:10;99693.16;;;11.09;100.00
56006;BME280;41888;44.696;10.522;2023-04-25T05:32:37;99695.34;;;10.64;100.00
56006;BME280;41888;44.696;10.522;2023-04-25T05:35:03;99697.19;;;10.27;100.00
56006;BME280;41888;44.696;10.522;2023-04-25T05:37:29;99695.50;;;10.07;100.00
56006;BME280;41888;44.696;10.522;2023-04-25T05:39:57;99695.50;;;10.07;100.00
56006;BME280;41888;44.696;10.522;2023-04-25T05:42:23;99708.94;;;10.19;100.00
56006;BME280;41888;44.696;10.522;2023-04-25T05:44:49;99707.84;;;10.02;100.00
56006;BME280;41888;44.696;10.522;2023-04-25T05:47:15;99707.00;;;10.01;100.00
56006;BME280;41888;44.696;10.522;2023-04-25T05:49:41;99716.47;;;9.97;100.00
56006;BME280;41888;44.696;10.522;2023-04-25T05:52:07;99718.41;;;9.84;100.00
56006;BME280;41888;44.696;10.522;2023-04-25T05:54:34;99714.47;;;9.93;100.00
56006;BME280;41888;44.696;10.522;2023-04-25T05:57:00;99725.56;;;10.08;100.00
56006;BME280;41888;44.696;10.522;2023-04-25T05:59:26;99724.69;;;10.14;100.00
56006;BME280;41888;44.696;10.522;2023-04-25T06:01:52;99733.81;;;10.25;100.00
56006;BME280;41888;44.696;10.522;2023-04-25T06:04:18;99737.47;;;10.30;100.00
56006;BME280;41888;44.696;10.522;2023-04-25T06:06:44;99744.56;;;10.36;100.00
56006;BME280;41888;44.696;10.522;2023-04-25T06:09:11;99744.72;;;10.41;100.00
56006;BME280;41888;44.696;10.522;2023-04-25T06:11:37;99750.34;;;10.51;100.00
56006;BME280;41888;44.696;10.522;2023-04-25T06:14:03;99743.38;;;10.50;100.00
56006;BME280;41888;44.696;10.522;2023-04-25T06:16:29;99744.84;;;10.65;100.00
56006;BME280;41888;44.696;10.522;2023-04-25T06:18:55;99753.50;;;10.60;100.00
56006;BME280;41888;44.696;10.522;2023-04-25T06:21:22;99750.63;;;10.62;100.00
56006;BME280;41888;44.696;10.522;2023-04-25T06:23:48;99750.41;;;10.81;100.00
56006;BME280;41888;44.696;10.522;2023-04-25T06:26:14;99752.38;;;10.86;100.00
56006;BME280;41888;44.696;10.522;2023-04-25T06:28:40;99755.13;;;10.97;100.00
56006;BME280;41888;44.696;10.522;2023-04-25T06:31:06;99758.28;;;11.06;100.00
56006;BME280;41888;44.696;10.522;2023-04-25T06:33:33;99767.91;;;11.07;100.00
56006;BME280;41888;44.696;10.522;2023-04-25T06:35:59;99761.63;;;11.01;100.00
56006;BME280;41888;44.696;10.522;2023-04-25T06:38:25;99762.03;;;11.17;100.00
56006;BME280;41888;44.696;10.522;2023-04-25T06:40:51;99772.47;;;11.18;100.00
56006;BME280;41888;44.696;10.522;2023-04-25T06:43:17;99762.78;;;11.24;100.00
56006;BME280;41888;44.696;10.522;2023-04-25T06:45:43;99764.34;;;11.43;100.00
56006;BME280;41888;44.696;10.522;2023-04-25T06:48:10;99773.03;;;11.38;100.00
56006;BME280;41888;44.696;10.522;2023-04-25T06:50:36;99764.13;;;11.44;100.00
56006;BME280;41888;44.696;10.522;2023-04-25T06:53:02;99770.19;;;11.52;100.00
56006;BME280;41888;44.696;10.522;2023-04-25T06:55:28;99774.16;;;11.61;100.00
56006;BME280;41888;44.696;10.522;2023-04-25T06:57:54;99767.19;;;11.60;100.00
56006;BME280;41888;44.696;10.522;2023-04-25T07:00:21;99772.88;;;11.63;100.00
56006;BME280;41888;44.696;10.522;2023-04-25T07:02:47;99778.56;;;11.67;100.00
56006;BME280;41888;44.696;10.522;2023-04-25T07:05:13;99772.88;;;11.63;100.00
56006;BME280;41888;44.696;10.522;2023-04-25T07:07:39;99772.50;;;11.60;100.00
56006;BME280;41888;44.696;10.522;2023-04-25T07:10:06;99778.69;;;11.72;100.00
56006;BME280;41888;44.696;10.522;2023-04-25T07:12:32;99778.38;;;11.80;100.00
56006;BME280;41888;44.696;10.522;2023-04-25T07:14:58;99783.97;;;11.78;100.00
56006;BME280;41888;44.696;10.522;2023-04-25T07:17:25;99780.66;;;11.95;100.00
56006;BME280;41888;44.696;10.522;2023-04-25T07:19:51;99779.16;;;12.10;100.00
56006;BME280;41888;44.696;10.522;2023-04-25T07:22:17;99773.72;;;12.05;100.00
56006;BME280;41888;44.696;10.522;2023-04-25T07:24:43;99775.66;;;11.98;100.00
56006;BME280;41888;44.696;10.522;2023-04-25T07:27:13;99775.66;;;12.21;100.00
56006;BME280;41888;44.696;10.522;2023-04-25T07:29:39;99770.69;;;12.13;100.00
56006;BME280;41888;44.696;10.522;2023-04-25T07:32:05;99782.94;;;11.91;100.00
56006;BME280;41888;44.696;10.522;2023-04-25T07:34:31;99783.84;;;11.85;100.00
56006;BME280;41888;44.696;10.522;2023-04-25T07:36:58;99779.94;;;11.69;100.00
56006;BME280;41888;44.696;10.522;2023-04-25T07:39:25;99785.75;;;11.66;100.00
56006;BME280;41888;44.696;10.522;2023-04-25T07:41:51;99789.53;;;11.59;100.00
56006;BME280;41888;44.696;10.522;2023-04-25T07:44:18;99794.88;;;11.59;100.00
56006;BME280;41888;44.696;10.522;2023-04-25T07:46:44;99798.00;;;11.56;100.00
56006;BME280;41888;44.696;10.522;2023-04-25T07:49:10;99806.72;;;11.63;100.00
56006;BME280;41888;44.696;10.522;2023-04-25T07:51:36;99803.06;;;11.75;100.00
56006;BME280;41888;44.696;10.522;2023-04-25T07:54:03;99805.63;;;11.82;100.00
56006;BME280;41888;44.696;10.522;2023-04-25T07:56:29;99808.44;;;11.87;100.00
56006;BME280;41888;44.696;10.522;2023-04-25T07:58:55;99819.59;;;12.07;100.00
56006;BME280;41888;44.696;10.522;2023-04-25T08:01:21;99810.50;;;12.26;100.00
56006;BME280;41888;44.696;10.522;2023-04-25T08:03:47;99818.59;;;12.43;100.00
56006;BME280;41888;44.696;10.522;2023-04-25T08:06:14;99818.81;;;12.53;100.00
56006;BME280;41888;44.696;10.522;2023-04-25T08:08:40;99825.56;;;12.79;100.00
56006;BME280;41888;44.696;10.522;2023-04-25T08:11:06;99830.31;;;13.00;100.00
56006;BME280;41888;44.696;10.522;2023-04-25T08:13:32;99828.69;;;12.88;100.00
56006;BME280;41888;44.696;10.522;2023-04-25T08:15:58;99828.19;;;13.02;100.00
56006;BME280;41888;44.696;10.522;2023-04-25T08:18:25;99833.88;;;13.18;100.00
56006;BME280;41888;44.696;10.522;2023-04-25T08:20:51;99840.63;;;12.97;100.00
56006;BME280;41888;44.696;10.522;2023-04-25T08:23:17;99836.78;;;13.04;100.00
56006;BME280;41888;44.696;10.522;2023-04-25T08:25:43;99844.25;;;12.79;100.00
56006;BME280;41888;44.696;10.522;2023-04-25T08:28:09;99843.66;;;12.54;100.00
56006;BME280;41888;44.696;10.522;2023-04-25T08:30:36;99850.03;;;12.41;100.00
56006;BME280;41888;44.696;10.522;2023-04-25T08:33:02;99840.28;;;12.58;100.00
56006;BME280;41888;44.696;10.522;2023-04-25T08:35:28;99843.56;;;12.72;100.00
56006;BME280;41888;44.696;10.522;2023-04-25T08:37:55;99844.09;;;13.09;100.00
56006;BME280;41888;44.696;10.522;2023-04-25T08:40:23;99840.41;;;12.98;100.00
56006;BME280;41888;44.696;10.522;2023-04-25T08:42:54;99846.69;;;13.16;100.00
56006;BME280;41888;44.696;10.522;2023-04-25T08:45:21;99860.13;;;12.97;100.00
56006;BME280;41888;44.696;10.522;2023-04-25T08:47:48;99848.63;;;12.85;100.00
56006;BME280;41888;44.696;10.522;2023-04-25T08:50:17;99862.13;;;12.79;100.00
56006;BME280;41888;44.696;10.522;2023-04-25T08:52:45;99856.41;;;13.10;100.00
56006;BME280;41888;44.696;10.522;2023-04-25T08:55:13;99858.03;;;13.11;100.00
56006;BME280;41888;44.696;10.522;2023-04-25T08:57:41;99862.41;;;13.40;100.00
56006;BME280;41888;44.696;10.522;2023-04-25T09:00:10;99870.00;;;13.20;100.00
56006;BME280;41888;44.696;10.522;2023-04-25T09:02:38;99867.75;;;13.40;100.00
56006;BME280;41888;44.696;10.522;2023-04-25T09:05:06;99856.56;;;13.43;100.00
56006;BME280;41888;44.696;10.522;2023-04-25T09:07:33;99869.66;;;13.68;100.00
56006;BME280;41888;44.696;10.522;2023-04-25T09:09:59;99865.25;;;13.62;100.00
56006;BME280;41888;44.696;10.522;2023-04-25T09:12:29;99870.47;;;13.69;100.00
56006;BME280;41888;44.696;10.522;2023-04-25T09:15:25;99880.22;;;13.91;100.00
56006;BME280;41888;44.696;10.522;2023-04-25T09:17:58;99885.81;;;14.35;100.00
56006;BME280;41888;44.696;10.522;2023-04-25T09:20:25;99891.03;;;13.68;100.00
56006;BME280;41888;44.696;10.522;2023-04-25T09:23:05;99881.81;;;13.36;100.00
56006;BME280;41888;44.696;10.522;2023-04-25T09:25:36;99886.31;;;13.47;100.00
56006;BME280;41888;44.696;10.522;2023-04-25T09:28:06;99878.44;;;13.97;100.00
56006;BME280;41888;44.696;10.522;2023-04-25T09:30:34;99885.75;;;13.85;100.00
56006;BME280;41888;44.696;10.522;2023-04-25T09:33:08;99875.63;;;14.65;100.00
56006;BME280;41888;44.696;10.522;2023-04-25T09:35:35;99868.31;;;14.61;100.00
56006;BME280;41888;44.696;10.522;2023-04-25T09:38:13;99873.75;;;14.83;100.00
56006;BME280;41888;44.696;10.522;2023-04-25T09:40:44;99884.38;;;14.77;100.00
56006;BME280;41888;44.696;10.522;2023-04-25T09:43:24;99884.00;;;15.07;100.00
56006;BME280;41888;44.696;10.522;2023-04-25T09:45:53;99884.53;;;14.88;100.00
56006;BME280;41888;44.696;10.522;2023-04-25T09:48:20;99879.59;;;14.63;100.00
56006;BME280;41888;44.696;10.522;2023-04-25T09:53:43;99889.75;;;15.16;100.00
56006;BME280;41888;44.696;10.522;2023-04-25T09:56:11;99872.88;;;15.37;100.00
56006;BME280;41888;44.696;10.522;2023-04-25T09:58:39;99881.84;;;15.26;100.00
56006;BME280;41888;44.696;10.522;2023-04-25T10:01:17;99869.84;;;14.73;100.00
56006;BME280;41888;44.696;10.522;2023-04-25T10:03:43;99871.03;;;14.99;100.00
56006;BME280;41888;44.696;10.522;2023-04-25T10:06:18;99895.59;;;14.74;100.00
56006;BME280;41888;44.696;10.522;2023-04-25T10:08:45;99874.69;;;15.32;100.00
56006;BME280;41888;44.696;10.522;2023-04-25T10:11:15;99874.00;;;15.63;100.00
56006;BME280;41888;44.696;10.522;2023-04-25T10:13:43;99881.38;;;15.73;100.00
56006;BME280;41888;44.696;10.522;2023-04-25T10:16:10;99870.06;;;15.27;100.00
56006;BME280;41888;44.696;10.522;2023-04-25T10:18:37;99879.56;;;15.56;100.00
56006;BME280;41888;44.696;10.522;2023-04-25T10:21:04;99869.00;;;15.28;100.00
56006;BME280;41888;44.696;10.522;2023-04-25T10:23:32;99865.88;;;15.36;100.00
56006;BME280;41888;44.696;10.522;2023-04-25T10:26:00;99863.22;;;15.80;100.00
56006;BME280;41888;44.696;10.522;2023-04-25T10:28:27;99862.44;;;16.11;100.00
56006;BME280;41888;44.696;10.522;2023-04-25T10:31:01;99855.25;;;16.17;100.00
56006;BME280;41888;44.696;10.522;2023-04-25T10:33:40;99857.22;;;15.29;100.00
56006;BME280;41888;44.696;10.522;2023-04-25T10:36:11;99851.84;;;15.51;100.00
56006;BME280;41888;44.696;10.522;2023-04-25T10:38:38;99846.69;;;15.66;100.00
56006;BME280;41888;44.696;10.522;2023-04-25T10:41:07;99839.69;;;15.92;100.00
56006;BME280;41888;44.696;10.522;2023-04-25T10:48:51;99838.81;;;16.13;100.00
56006;BME280;41888;44.696;10.522;2023-04-25T10:51:24;99835.81;;;15.78;100.00
56006;BME280;41888;44.696;10.522;2023-04-25T10:54:06;99838.97;;;16.28;100.00
56006;BME280;41888;44.696;10.522;2023-04-25T11:01:38;99833.03;;;15.68;100.00
56006;BME280;41888;44.696;10.522;2023-04-25T11:04:05;99835.56;;;16.06;100.00
56006;BME280;41888;44.696;10.522;2023-04-25T11:09:11;99827.81;;;16.10;100.00
56006;BME280;41888;44.696;10.522;2023-04-25T11:11:41;99824.38;;;15.87;100.00
56006;BME280;41888;44.696;10.522;2023-04-25T11:14:07;99831.25;;;16.05;100.00
56006;BME280;41888;44.696;10.522;2023-04-25T11:16:34;99825.31;;;16.35;100.00
56006;BME280;41888;44.696;10.522;2023-04-25T11:19:02;99828.69;;;15.61;100.00
56006;BME280;41888;44.696;10.522;2023-04-25T11:21:30;99819.69;;;15.73;100.00
56006;BME280;41888;44.696;10.522;2023-04-25T11:23:57;99822.09;;;16.01;100.00
56006;BME280;41888;44.696;10.522;2023-04-25T11:26:25;99821.53;;;15.99;100.00
56006;BME280;41888;44.696;10.522;2023-04-25T11:28:51;99823.97;;;15.74;100.00
56006;BME280;41888;44.696;10.522;2023-04-25T11:31:22;99818.91;;;16.04;100.00
56006;BME280;41888;44.696;10.522;2023-04-25T11:33:52;99814.97;;;15.85;100.00
56006;BME280;41888;44.696;10.522;2023-04-25T11:36:18;99820.25;;;15.75;100.00
56006;BME280;41888;44.696;10.522;2023-04-25T11:38:45;99813.16;;;15.20;100.00
56006;BME280;41888;44.696;10.522;2023-04-25T11:41:51;99820.19;;;15.70;100.00
56006;BME280;41888;44.696;10.522;2023-04-25T11:44:18;99821.72;;;15.66;100.00
56006;BME280;41888;44.696;10.522;2023-04-25T11:46:45;99809.22;;;16.35;96.87
56006;BME280;41888;44.696;10.522;2023-04-25T11:49:12;99805.59;;;16.19;100.00
56006;BME280;41888;44.696;10.522;2023-04-25T11:51:43;99803.72;;;16.57;98.99
56006;BME280;41888;44.696;10.522;2023-04-25T11:54:10;99815.00;;;16.91;96.19
56006;BME280;41888;44.696;10.522;2023-04-25T11:56:40;99810.31;;;16.02;98.14
56006;BME280;41888;44.696;10.522;2023-04-25T11:59:07;99804.88;;;16.29;97.80
56006;BME280;41888;44.696;10.522;2023-04-25T12:01:35;99796.72;;;16.98;92.59
56006;BME280;41888;44.696;10.522;2023-04-25T12:04:22;99793.50;;;16.96;91.62
56006;BME280;41888;44.696;10.522;2023-04-25T12:06:51;99786.69;;;16.78;95.57
56006;BME280;41888;44.696;10.522;2023-04-25T12:09:19;99793.22;;;16.92;93.30
56006;BME280;41888;44.696;10.522;2023-04-25T12:11:55;99789.94;;;16.80;95.94
56006;BME280;41888;44.696;10.522;2023-04-25T12:14:25;99783.56;;;16.91;94.19
56006;BME280;41888;44.696;10.522;2023-04-25T12:16:54;99788.91;;;17.63;92.78
56006;BME280;41888;44.696;10.522;2023-04-25T12:19:21;99786.44;;;17.52;92.76
56006;BME280;41888;44.696;10.522;2023-04-25T12:21:49;99790.66;;;17.17;94.65
56006;BME280;41888;44.696;10.522;2023-04-25T12:24:17;99776.50;;;17.52;92.73
56006;BME280;41888;44.696;10.522;2023-04-25T12:27:06;99777.31;;;17.58;92.05
56006;BME280;41888;44.696;10.522;2023-04-25T12:29:34;99778.69;;;16.88;93.89
56006;BME280;41888;44.696;10.522;2023-04-25T12:32:01;99781.13;;;16.89;94.00
56006;BME280;41888;44.696;10.522;2023-04-25T12:34:27;99774.84;;;16.69;96.70
56006;BME280;41888;44.696;10.522;2023-04-25T12:36:55;99771.63;;;16.77;94.44
56006;BME280;41888;44.696;10.522;2023-04-25T12:39:24;99764.44;;;16.45;96.05
56006;BME280;41888;44.696;10.522;2023-04-25T12:41:51;99756.13;;;16.42;93.58
56006;BME280;41888;44.696;10.522;2023-04-25T12:44:20;99768.88;;;16.62;93.23
56006;BME280;41888;44.696;10.522;2023-04-25T12:46:47;99753.97;;;16.39;94.98
56006;BME280;41888;44.696;10.522;2023-04-25T12:49:14;99753.13;;;16.75;93.74
56006;BME280;41888;44.696;10.522;2023-04-25T12:51:40;99762.44;;;16.63;92.61
56006;BME280;41888;44.696;10.522;2023-04-25T12:54:08;99764.72;;;16.44;92.75
56006;BME280;41888;44.696;10.522;2023-04-25T12:56:35;99767.56;;;16.27;93.46
56006;BME280;41888;44.696;10.522;2023-04-25T12:59:02;99758.97;;;15.93;95.77
56006;BME280;41888;44.696;10.522;2023-04-25T13:01:30;99764.13;;;16.79;94.92